createdAt,value
2023-08-17T00:00:21.226Z,20.56
2023-08-17T00:01:52.944Z,20.59
2023-08-17T00:03:24.801Z,20.77
2023-08-17T00:04:56.490Z,20.87
2023-08-17T00:06:29.594Z,20.84
2023-08-17T00:08:01.256Z,20.60
2023-08-17T00:09:33.199Z,20.90
2023-08-17T00:11:04.820Z,20.75
2023-08-17T00:12:36.466Z,20.67
2023-08-17T00:14:08.132Z,20.57
2023-08-17T00:15:40.196Z,20.63
2023-08-17T00:17:11.916Z,20.47
2023-08-17T00:18:43.551Z,20.50
2023-08-17T00:20:15.393Z,20.61
2023-08-17T00:21:48.411Z,20.70
2023-08-17T00:23:21.792Z,20.78
2023-08-17T00:24:53.504Z,20.52
2023-08-17T00:26:26.019Z,20.39
2023-08-17T00:27:57.846Z,20.42
2023-08-17T00:29:29.559Z,20.63
2023-08-17T00:31:01.228Z,20.71
2023-08-17T00:32:32.906Z,20.63
2023-08-17T00:34:04.794Z,20.50
2023-08-17T00:35:36.423Z,20.43
2023-08-17T00:37:09.671Z,20.26
2023-08-17T00:38:43.964Z,20.49
2023-08-17T00:40:15.777Z,20.52
2023-08-17T00:41:47.570Z,20.43
2023-08-17T00:43:19.215Z,20.20
2023-08-17T00:44:50.839Z,20.30
2023-08-17T00:46:24.168Z,20.15
2023-08-17T00:47:56.321Z,20.19
2023-08-17T00:49:28.253Z,20.16
2023-08-17T00:50:59.885Z,20.24
2023-08-17T00:52:33.702Z,20.37
2023-08-17T00:54:05.833Z,20.56
2023-08-17T00:55:37.519Z,20.40
2023-08-17T00:57:09.751Z,20.49
2023-08-17T00:58:41.639Z,20.40
2023-08-17T01:00:15.231Z,20.17
2023-08-17T01:01:49.024Z,20.13
2023-08-17T01:03:20.767Z,20.09
2023-08-17T01:04:52.873Z,20.13
2023-08-17T01:06:24.583Z,20.33
2023-08-17T01:07:57.782Z,20.31
2023-08-17T01:09:29.447Z,20.42
2023-08-17T01:11:06.343Z,20.31
2023-08-17T01:12:42.600Z,20.31
2023-08-17T01:14:16.895Z,20.42
2023-08-17T01:15:51.370Z,20.38
2023-08-17T01:17:25.646Z,20.07
2023-08-17T01:18:58.970Z,20.05
2023-08-17T01:20:30.711Z,20.23
2023-08-17T01:22:04.781Z,20.18
2023-08-17T01:23:37.805Z,20.09
2023-08-17T01:25:09.736Z,19.96
2023-08-17T01:26:41.420Z,19.94
2023-08-17T01:28:13.106Z,19.80
2023-08-17T01:29:44.803Z,20.14
2023-08-17T01:31:21.040Z,20.07
2023-08-17T01:32:59.268Z,20.12
2023-08-17T01:34:30.950Z,20.27
2023-08-17T01:36:05.965Z,20.30
2023-08-17T01:37:37.584Z,20.28
2023-08-17T01:39:13.564Z,20.12
2023-08-17T01:40:46.010Z,20.14
2023-08-17T01:42:17.665Z,19.95
2023-08-17T01:43:49.350Z,20.01
2023-08-17T01:45:21.022Z,20.03
2023-08-17T01:46:52.753Z,19.99
2023-08-17T01:48:24.448Z,20.04
2023-08-17T01:50:00.580Z,20.11
2023-08-17T01:51:32.252Z,20.03
2023-08-17T01:53:04.263Z,19.97
2023-08-17T01:54:37.351Z,19.91
2023-08-17T01:56:09.453Z,19.63
2023-08-17T01:57:42.332Z,19.82
2023-08-17T01:59:14.226Z,19.64
2023-08-17T02:00:45.914Z,19.60
2023-08-17T02:02:18.357Z,19.77
2023-08-17T02:05:21.843Z,19.73
2023-08-17T02:06:53.592Z,19.70
2023-08-17T02:08:25.256Z,19.69
2023-08-17T02:09:58.313Z,19.47
2023-08-17T02:11:29.967Z,19.54
2023-08-17T02:13:12.411Z,19.56
2023-08-17T02:14:49.483Z,19.37
2023-08-17T02:16:21.186Z,19.39
2023-08-17T02:17:53.011Z,19.38
2023-08-17T02:19:24.731Z,19.46
2023-08-17T02:20:56.531Z,19.52
2023-08-17T02:22:31.160Z,19.38
2023-08-17T02:24:02.841Z,19.33
2023-08-17T02:25:38.501Z,19.27
2023-08-17T02:27:10.376Z,19.41
2023-08-17T02:28:42.066Z,19.32
2023-08-17T02:30:14.698Z,19.31
2023-08-17T02:31:47.573Z,19.26
2023-08-17T02:33:19.330Z,19.26
2023-08-17T02:34:51.054Z,19.28
2023-08-17T02:36:22.800Z,19.42
2023-08-17T02:37:54.671Z,19.50
2023-08-17T02:39:26.938Z,19.44
2023-08-17T02:40:59.939Z,19.50
2023-08-17T02:42:31.640Z,19.52
2023-08-17T02:44:03.592Z,19.50
2023-08-17T02:45:35.275Z,19.52
2023-08-17T02:47:07.055Z,19.56
2023-08-17T02:48:38.699Z,19.50
2023-08-17T02:50:10.965Z,19.44
2023-08-17T02:51:42.597Z,19.46
2023-08-17T02:53:14.238Z,19.30
2023-08-17T02:54:45.950Z,19.32
2023-08-17T02:56:18.972Z,19.15
2023-08-17T02:57:50.633Z,19.04
2023-08-17T02:59:22.464Z,19.09
2023-08-17T03:00:54.847Z,19.21
2023-08-17T03:02:26.611Z,19.18
2023-08-17T03:03:58.296Z,19.21
2023-08-17T03:05:30.014Z,19.25
2023-08-17T03:07:01.866Z,19.24
2023-08-17T03:08:33.477Z,19.32
2023-08-17T03:10:06.076Z,19.23
2023-08-17T03:11:39.075Z,19.13
2023-08-17T03:13:10.854Z,18.94
2023-08-17T03:14:42.459Z,19.01
2023-08-17T03:16:14.161Z,19.11
2023-08-17T03:17:45.938Z,18.92
2023-08-17T03:19:18.622Z,18.83
2023-08-17T03:20:50.385Z,18.88
2023-08-17T03:22:22.113Z,18.99
2023-08-17T03:23:53.855Z,18.92
2023-08-17T03:25:25.576Z,18.82
2023-08-17T03:26:58.570Z,18.78
2023-08-17T03:28:30.288Z,18.88
2023-08-17T03:30:01.975Z,19.02
2023-08-17T03:31:33.619Z,18.90
2023-08-17T03:33:05.578Z,19.00
2023-08-17T03:34:37.236Z,19.01
2023-08-17T03:36:09.231Z,18.77
2023-08-17T03:37:40.897Z,18.82
2023-08-17T03:39:12.627Z,18.75
2023-08-17T03:40:44.301Z,18.81
2023-08-17T03:42:17.325Z,18.85
2023-08-17T03:43:49.053Z,18.83
2023-08-17T03:45:20.715Z,18.86
2023-08-17T03:46:52.459Z,18.83
2023-08-17T03:48:24.104Z,18.90
2023-08-17T03:49:56.071Z,18.98
2023-08-17T03:51:27.861Z,19.02
2023-08-17T03:52:59.538Z,18.96
2023-08-17T03:54:31.166Z,18.86
2023-08-17T03:56:03.253Z,18.74
2023-08-17T03:57:39.071Z,18.68
2023-08-17T03:59:11.295Z,18.83
2023-08-17T04:00:43.449Z,18.89
2023-08-17T04:02:15.109Z,18.88
2023-08-17T04:03:46.908Z,18.83
2023-08-17T04:05:18.995Z,18.81
2023-08-17T04:06:50.798Z,18.80
2023-08-17T04:08:22.604Z,18.79
2023-08-17T04:09:54.403Z,18.89
2023-08-17T04:11:26.036Z,18.79
2023-08-17T04:12:59.084Z,18.57
2023-08-17T04:14:30.753Z,18.40
2023-08-17T04:16:02.399Z,18.42
2023-08-17T04:17:34.240Z,18.54
2023-08-17T04:19:06.134Z,18.63
2023-08-17T04:20:37.868Z,18.75
2023-08-17T04:22:09.665Z,18.76
2023-08-17T04:23:41.281Z,18.82
2023-08-17T04:25:13.857Z,18.88
2023-08-17T04:26:45.524Z,18.75
2023-08-17T04:28:18.558Z,18.83
2023-08-17T04:29:50.209Z,18.81
2023-08-17T04:31:21.951Z,18.78
2023-08-17T04:32:53.988Z,18.65
2023-08-17T04:34:25.991Z,18.66
2023-08-17T04:35:57.692Z,18.69
2023-08-17T04:37:29.509Z,18.77
2023-08-17T04:39:01.233Z,18.81
2023-08-17T04:40:33.224Z,18.46
2023-08-17T04:42:05.414Z,18.45
2023-08-17T04:43:38.401Z,18.52
2023-08-17T04:45:10.323Z,18.43
2023-08-17T04:46:42.012Z,18.68
2023-08-17T04:48:13.709Z,18.62
2023-08-17T04:49:45.354Z,18.58
2023-08-17T04:51:17.142Z,18.74
2023-08-17T04:52:48.814Z,18.76
2023-08-17T04:54:20.441Z,18.64
2023-08-17T04:55:52.376Z,18.58
2023-08-17T04:57:24.375Z,18.60
2023-08-17T04:58:57.625Z,18.57
2023-08-17T05:00:29.706Z,18.65
2023-08-17T05:02:01.344Z,18.70
2023-08-17T05:03:34.012Z,18.68
2023-08-17T05:05:11.125Z,18.77
2023-08-17T05:06:43.739Z,18.85
2023-08-17T05:08:15.420Z,18.88
2023-08-17T05:09:47.167Z,18.91
2023-08-17T05:11:18.929Z,18.97
2023-08-17T05:12:50.656Z,18.83
2023-08-17T05:14:23.694Z,18.87
2023-08-17T05:15:55.369Z,18.85
2023-08-17T05:17:27.362Z,18.83
2023-08-17T05:19:00.575Z,18.84
2023-08-17T05:20:34.297Z,18.90
2023-08-17T05:22:06.670Z,18.91
2023-08-17T05:23:38.329Z,18.98
2023-08-17T05:25:10.254Z,18.92
2023-08-17T05:26:41.963Z,19.03
2023-08-17T05:28:13.589Z,19.19
2023-08-17T05:29:46.560Z,19.28
2023-08-17T05:31:18.247Z,19.35
2023-08-17T05:32:49.996Z,19.36
2023-08-17T05:34:21.694Z,19.25
2023-08-17T05:35:55.004Z,19.24
2023-08-17T05:37:26.890Z,19.19
2023-08-17T05:38:58.728Z,19.25
2023-08-17T05:40:31.174Z,19.38
2023-08-17T05:42:03.081Z,19.41
2023-08-17T05:43:34.699Z,19.42
2023-08-17T05:45:09.204Z,19.45
2023-08-17T05:46:40.866Z,19.56
2023-08-17T05:48:12.578Z,19.61
2023-08-17T05:49:44.215Z,19.64
2023-08-17T05:51:15.852Z,19.72
2023-08-17T05:52:50.053Z,19.72
2023-08-17T05:54:21.683Z,19.75
2023-08-17T05:55:56.442Z,19.77
2023-08-17T05:57:28.319Z,19.82
2023-08-17T05:59:00.315Z,19.84
2023-08-17T06:00:33.386Z,19.85
2023-08-17T06:02:05.376Z,19.86
2023-08-17T06:03:37.219Z,19.88
2023-08-17T06:05:10.393Z,19.90
2023-08-17T06:06:42.087Z,19.89
2023-08-17T06:08:13.817Z,19.95
2023-08-17T06:09:45.439Z,19.96
2023-08-17T06:11:17.088Z,19.87
2023-08-17T06:12:48.732Z,19.89
2023-08-17T06:14:20.433Z,19.93
2023-08-17T06:15:53.504Z,19.89
2023-08-17T06:17:25.394Z,19.81
2023-08-17T06:18:57.381Z,19.76
2023-08-17T06:20:29.091Z,19.77
2023-08-17T06:22:00.724Z,19.74
2023-08-17T06:23:32.343Z,19.73
2023-08-17T06:25:06.093Z,19.78
2023-08-17T06:26:37.734Z,19.84
2023-08-17T06:28:09.399Z,19.87
2023-08-17T06:29:41.040Z,19.81
2023-08-17T06:31:16.921Z,19.92
2023-08-17T06:32:48.719Z,19.91
2023-08-17T06:34:20.418Z,19.83
2023-08-17T06:35:52.156Z,19.81
2023-08-17T06:37:23.819Z,19.82
2023-08-17T06:38:55.458Z,19.84
2023-08-17T06:40:27.259Z,19.94
2023-08-17T06:41:58.873Z,19.95
2023-08-17T06:43:33.390Z,19.96
2023-08-17T06:45:06.497Z,19.97
2023-08-17T06:46:39.526Z,19.98
2023-08-17T06:48:11.263Z,20.04
2023-08-17T06:49:43.362Z,20.11
2023-08-17T06:51:15.020Z,20.15
2023-08-17T06:52:46.696Z,20.20
2023-08-17T06:54:18.351Z,20.29
2023-08-17T06:55:50.041Z,20.28
2023-08-17T06:57:22.958Z,20.36
2023-08-17T06:58:54.618Z,20.42
2023-08-17T07:00:26.379Z,20.42
2023-08-17T07:01:59.998Z,20.48
2023-08-17T07:03:31.812Z,20.48
2023-08-17T07:05:06.582Z,20.54
2023-08-17T07:06:38.258Z,20.61
2023-08-17T07:08:12.499Z,20.60
2023-08-17T07:09:44.213Z,20.61
2023-08-17T07:11:15.827Z,20.67
2023-08-17T07:12:47.872Z,20.72
2023-08-17T07:14:21.823Z,20.78
2023-08-17T07:15:55.128Z,20.78
2023-08-17T07:17:28.603Z,20.92
2023-08-17T07:19:00.541Z,21.03
2023-08-17T07:20:35.385Z,21.08
2023-08-17T07:22:10.150Z,21.09
2023-08-17T07:23:46.002Z,21.06
2023-08-17T07:25:17.831Z,21.10
2023-08-17T07:26:49.550Z,21.26
2023-08-17T07:28:21.328Z,21.36
2023-08-17T07:29:55.498Z,21.33
2023-08-17T07:31:27.889Z,21.36
2023-08-17T07:33:00.935Z,21.56
2023-08-17T07:34:32.594Z,21.78
2023-08-17T07:36:05.634Z,21.83
2023-08-17T07:37:37.380Z,21.69
2023-08-17T07:39:09.304Z,21.78
2023-08-17T07:40:40.999Z,21.74
2023-08-17T07:42:12.682Z,21.87
2023-08-17T07:43:44.506Z,21.65
2023-08-17T07:45:16.687Z,21.80
2023-08-17T07:46:48.335Z,21.70
2023-08-17T07:48:21.740Z,21.70
2023-08-17T07:49:53.454Z,21.94
2023-08-17T07:51:25.139Z,21.92
2023-08-17T07:52:56.816Z,22.00
2023-08-17T07:54:28.898Z,22.08
2023-08-17T07:56:00.542Z,22.02
2023-08-17T07:57:32.553Z,22.05
2023-08-17T07:59:04.684Z,22.21
2023-08-17T08:00:36.437Z,22.12
2023-08-17T08:02:08.101Z,22.09
2023-08-17T08:03:41.143Z,22.21
2023-08-17T08:05:15.195Z,22.08
2023-08-17T08:06:47.163Z,22.20
2023-08-17T08:08:18.853Z,22.26
2023-08-17T08:09:50.510Z,22.25
2023-08-17T08:11:22.822Z,22.11
2023-08-17T08:12:54.656Z,22.10
2023-08-17T08:14:26.449Z,22.21
2023-08-17T08:15:59.429Z,22.26
2023-08-17T08:17:31.566Z,22.35
2023-08-17T08:19:05.177Z,22.45
2023-08-17T08:20:37.021Z,22.44
2023-08-17T08:22:08.720Z,22.74
2023-08-17T08:23:40.432Z,22.86
2023-08-17T08:25:12.232Z,22.73
2023-08-17T08:26:43.917Z,22.71
2023-08-17T08:28:15.827Z,22.18
2023-08-17T08:29:47.750Z,22.44
2023-08-17T08:31:19.553Z,22.43
2023-08-17T08:32:51.258Z,22.53
2023-08-17T08:34:24.421Z,22.69
2023-08-17T08:35:56.085Z,22.27
2023-08-17T08:37:30.521Z,22.45
2023-08-17T08:39:02.321Z,22.54
2023-08-17T08:40:34.021Z,22.73
2023-08-17T08:42:05.779Z,22.53
2023-08-17T08:43:37.537Z,22.67
2023-08-17T08:45:10.048Z,22.29
2023-08-17T08:46:43.164Z,22.39
2023-08-17T08:48:15.046Z,22.75
2023-08-17T08:49:51.538Z,23.13
2023-08-17T08:51:26.250Z,23.04
2023-08-17T08:52:59.775Z,22.80
2023-08-17T08:54:31.529Z,22.78
2023-08-17T08:56:03.392Z,23.01
2023-08-17T08:57:35.160Z,23.19
2023-08-17T08:59:07.009Z,23.44
2023-08-17T09:00:38.871Z,23.51
2023-08-17T09:02:13.645Z,23.71
2023-08-17T09:03:45.867Z,23.46
2023-08-17T09:05:19.333Z,23.32
2023-08-17T09:06:51.137Z,23.45
2023-08-17T09:08:26.535Z,23.42
2023-08-17T09:09:58.231Z,23.59
2023-08-17T09:11:33.315Z,23.60
2023-08-17T09:13:05.010Z,23.62
2023-08-17T09:14:38.259Z,23.81
2023-08-17T09:16:12.464Z,24.06
2023-08-17T09:17:44.429Z,24.04
2023-08-17T09:19:16.228Z,24.19
2023-08-17T09:20:49.691Z,24.45
2023-08-17T09:22:25.404Z,24.73
2023-08-17T09:24:00.536Z,24.53
2023-08-17T09:25:32.926Z,24.41
2023-08-17T09:27:10.840Z,24.57
2023-08-17T09:28:42.735Z,24.76
2023-08-17T09:31:50.830Z,25.02
2023-08-17T09:33:22.842Z,24.75
2023-08-17T09:34:54.520Z,24.85
2023-08-17T09:36:27.609Z,24.98
2023-08-17T09:37:59.460Z,24.81
2023-08-17T09:39:31.125Z,24.75
2023-08-17T09:41:03.122Z,24.91
2023-08-17T09:42:35.762Z,25.11
2023-08-17T09:44:07.778Z,24.81
2023-08-17T09:45:40.044Z,24.88
2023-08-17T09:47:11.698Z,25.20
2023-08-17T09:48:44.657Z,25.45
2023-08-17T09:50:16.506Z,25.45
2023-08-17T09:51:49.670Z,25.41
2023-08-17T09:53:21.376Z,25.69
2023-08-17T09:54:53.411Z,25.25
2023-08-17T09:56:25.131Z,25.33
2023-08-17T09:57:56.838Z,25.55
2023-08-17T09:59:28.570Z,25.59
2023-08-17T10:01:00.314Z,25.41
2023-08-17T10:02:32.065Z,25.35
2023-08-17T10:04:04.089Z,25.57
2023-08-17T10:05:38.286Z,25.95
2023-08-17T10:07:11.280Z,26.19
2023-08-17T10:08:45.138Z,25.64
2023-08-17T10:10:17.808Z,26.34
2023-08-17T10:11:49.476Z,26.17
2023-08-17T10:13:25.030Z,26.27
2023-08-17T10:14:59.071Z,26.30
2023-08-17T10:16:34.626Z,26.39
2023-08-17T10:18:15.651Z,26.37
2023-08-17T10:19:53.197Z,26.57
2023-08-17T10:21:28.549Z,26.44
2023-08-17T10:23:06.318Z,26.23
2023-08-17T10:24:39.435Z,25.46
2023-08-17T10:26:11.354Z,25.38
2023-08-17T10:27:43.152Z,25.40
2023-08-17T10:29:17.432Z,25.77
2023-08-17T10:30:49.550Z,26.27
2023-08-17T10:32:22.816Z,26.60
2023-08-17T10:33:58.279Z,26.09
2023-08-17T10:35:30.096Z,26.77
2023-08-17T10:37:01.776Z,26.91
2023-08-17T10:38:34.847Z,27.10
2023-08-17T10:40:07.777Z,27.07
2023-08-17T10:41:47.432Z,26.85
2023-08-17T10:44:54.807Z,27.21
2023-08-17T10:46:35.555Z,26.90
2023-08-17T10:48:27.067Z,27.56
2023-08-17T10:49:59.440Z,27.71
2023-08-17T10:51:31.092Z,27.55
2023-08-17T10:53:05.215Z,27.60
2023-08-17T10:54:39.232Z,27.71
2023-08-17T10:56:15.008Z,27.78
2023-08-17T10:57:46.643Z,27.90
2023-08-17T10:59:25.971Z,28.00
2023-08-17T11:00:58.040Z,27.88
2023-08-17T11:02:35.606Z,27.94
2023-08-17T11:04:12.443Z,27.60
2023-08-17T11:05:45.270Z,27.62
2023-08-17T11:07:17.609Z,27.82
2023-08-17T11:08:53.068Z,28.24
2023-08-17T11:10:35.884Z,27.71
2023-08-17T11:12:07.642Z,27.97
2023-08-17T11:13:39.956Z,28.20
2023-08-17T11:15:11.687Z,28.21
2023-08-17T11:16:43.447Z,28.22
2023-08-17T11:18:15.194Z,28.12
2023-08-17T11:19:46.839Z,28.03
2023-08-17T11:21:20.117Z,27.68
2023-08-17T11:22:52.345Z,27.80
2023-08-17T11:24:29.361Z,27.99
2023-08-17T11:26:02.613Z,27.60
2023-08-17T11:27:38.952Z,27.24
2023-08-17T11:29:11.101Z,27.62
2023-08-17T11:32:19.399Z,28.07
2023-08-17T11:35:27.086Z,28.26
2023-08-17T11:36:58.915Z,27.89
2023-08-17T11:38:31.231Z,27.79
2023-08-17T11:40:03.288Z,28.08
2023-08-17T11:41:36.375Z,27.65
2023-08-17T11:43:09.413Z,27.78
2023-08-17T11:44:41.639Z,27.88
2023-08-17T11:46:16.084Z,27.80
2023-08-17T11:47:48.057Z,27.94
2023-08-17T11:49:19.729Z,28.11
2023-08-17T11:50:51.876Z,27.97
2023-08-17T11:52:23.509Z,27.80
2023-08-17T11:53:55.232Z,27.64
2023-08-17T11:55:27.284Z,27.74
2023-08-17T11:57:05.352Z,28.02
2023-08-17T11:58:40.816Z,28.22
2023-08-17T12:00:18.585Z,28.14
2023-08-17T12:01:50.458Z,28.24
2023-08-17T12:03:22.216Z,28.26
2023-08-17T12:04:54.214Z,28.11
2023-08-17T12:06:25.956Z,28.28
2023-08-17T12:07:57.630Z,28.36
2023-08-17T12:09:29.461Z,27.97
2023-08-17T12:11:01.641Z,27.67
2023-08-17T12:12:37.661Z,27.94
2023-08-17T12:14:10.956Z,27.79
2023-08-17T12:15:42.727Z,27.79
2023-08-17T12:17:15.697Z,27.75
2023-08-17T12:18:48.732Z,27.77
2023-08-17T12:20:21.084Z,27.96
2023-08-17T12:21:52.808Z,27.65
2023-08-17T12:23:24.540Z,27.69
2023-08-17T12:24:56.192Z,27.48
2023-08-17T12:26:28.763Z,27.51
2023-08-17T12:28:02.205Z,27.58
2023-08-17T12:29:33.945Z,27.45
2023-08-17T12:31:05.624Z,27.44
2023-08-17T12:32:37.977Z,27.35
2023-08-17T12:34:09.764Z,27.52
2023-08-17T12:35:41.493Z,27.75
2023-08-17T12:37:13.592Z,27.80
2023-08-17T12:38:46.278Z,27.70
2023-08-17T12:40:17.902Z,27.79
2023-08-17T12:41:49.742Z,27.72
2023-08-17T12:43:22.788Z,27.58
2023-08-17T12:44:54.396Z,27.55
2023-08-17T12:46:26.253Z,27.40
2023-08-17T12:47:57.985Z,27.28
2023-08-17T12:49:29.659Z,27.04
2023-08-17T12:51:02.799Z,27.01
2023-08-17T12:52:35.553Z,27.19
2023-08-17T12:54:07.245Z,27.26
2023-08-17T12:55:38.875Z,27.17
2023-08-17T12:57:13.138Z,27.22
2023-08-17T12:58:46.400Z,27.33
2023-08-17T13:00:18.386Z,27.22
2023-08-17T13:01:50.123Z,27.28
2023-08-17T13:03:21.925Z,27.20
2023-08-17T13:04:53.915Z,27.28
2023-08-17T13:06:29.007Z,27.35
2023-08-17T13:08:05.740Z,27.36
2023-08-17T13:09:37.422Z,27.29
2023-08-17T13:11:09.111Z,27.49
2023-08-17T13:12:40.770Z,27.39
2023-08-17T13:14:15.297Z,27.39
2023-08-17T13:15:47.102Z,27.34
2023-08-17T13:17:18.738Z,27.06
2023-08-17T13:18:50.520Z,27.11
2023-08-17T13:20:23.022Z,27.24
2023-08-17T13:21:54.903Z,27.25
2023-08-17T13:23:26.612Z,27.26
2023-08-17T13:24:58.368Z,27.17
2023-08-17T13:26:30.347Z,27.08
2023-08-17T13:28:02.032Z,27.15
2023-08-17T13:29:36.739Z,27.10
2023-08-17T13:31:23.834Z,26.97
2023-08-17T13:32:56.877Z,26.95
2023-08-17T13:34:28.552Z,26.86
2023-08-17T13:36:00.322Z,26.95
2023-08-17T13:37:32.350Z,26.92
2023-08-17T13:39:04.502Z,26.81
2023-08-17T13:40:37.439Z,26.79
2023-08-17T13:42:09.191Z,26.74
2023-08-17T13:43:41.203Z,26.77
2023-08-17T13:45:14.274Z,26.82
2023-08-17T13:46:45.880Z,26.94
2023-08-17T13:48:17.633Z,27.04
2023-08-17T13:49:49.302Z,26.98
2023-08-17T13:51:21.000Z,26.94
2023-08-17T13:52:52.657Z,26.81
2023-08-17T13:54:24.452Z,26.66
2023-08-17T13:55:56.315Z,26.77
2023-08-17T13:57:27.952Z,26.87
2023-08-17T13:58:59.739Z,26.90
2023-08-17T14:00:33.296Z,26.93
2023-08-17T14:02:05.085Z,26.92
2023-08-17T14:03:37.681Z,27.00
2023-08-17T14:05:10.482Z,26.95
2023-08-17T14:06:42.246Z,26.92
2023-08-17T14:08:13.988Z,26.84
2023-08-17T14:09:57.897Z,26.86
2023-08-17T14:11:37.409Z,26.83
2023-08-17T14:13:09.104Z,26.80
2023-08-17T14:14:40.727Z,26.87
2023-08-17T14:16:13.762Z,26.88
2023-08-17T14:17:45.527Z,27.04
2023-08-17T14:19:17.623Z,26.99
2023-08-17T14:20:49.274Z,26.95
2023-08-17T14:22:20.979Z,27.04
2023-08-17T14:23:52.718Z,26.88
2023-08-17T14:25:24.375Z,26.90
2023-08-17T14:26:57.835Z,26.80
2023-08-17T14:28:29.462Z,26.44
2023-08-17T14:30:02.786Z,26.47
2023-08-17T14:31:35.774Z,26.67
2023-08-17T14:33:07.815Z,26.73
2023-08-17T14:34:39.569Z,26.65
2023-08-17T14:36:11.198Z,26.67
2023-08-17T14:37:42.877Z,26.63
2023-08-17T14:39:14.586Z,26.73
2023-08-17T14:40:46.973Z,26.62
2023-08-17T14:42:18.618Z,26.67
2023-08-17T14:43:50.291Z,26.78
2023-08-17T14:45:21.983Z,26.81
2023-08-17T14:46:54.998Z,26.72
2023-08-17T14:48:26.977Z,26.74
2023-08-17T14:49:58.769Z,26.76
2023-08-17T14:51:31.449Z,26.60
2023-08-17T14:53:03.983Z,26.56
2023-08-17T14:54:35.729Z,26.61
2023-08-17T14:56:07.439Z,26.42
2023-08-17T14:57:39.151Z,26.48
2023-08-17T14:59:11.153Z,26.51
2023-08-17T15:00:42.812Z,26.44
2023-08-17T15:03:52.746Z,26.33
2023-08-17T15:05:28.884Z,26.04
2023-08-17T15:07:00.935Z,26.14
2023-08-17T15:08:33.229Z,26.13
2023-08-17T15:10:05.529Z,26.19
2023-08-17T15:11:37.328Z,26.19
2023-08-17T15:13:11.360Z,25.98
2023-08-17T15:14:43.324Z,26.03
2023-08-17T15:16:15.009Z,26.17
2023-08-17T15:17:48.017Z,26.28
2023-08-17T15:19:34.494Z,26.32
2023-08-17T15:21:11.343Z,26.48
2023-08-17T15:22:43.030Z,26.17
2023-08-17T15:24:14.648Z,26.15
2023-08-17T15:25:46.562Z,26.14
2023-08-17T15:27:18.237Z,26.19
2023-08-17T15:28:49.934Z,26.30
2023-08-17T15:30:21.610Z,26.30
2023-08-17T15:31:53.220Z,26.21
2023-08-17T15:33:26.225Z,26.16
2023-08-17T15:34:58.184Z,26.25
2023-08-17T15:36:29.841Z,26.28
2023-08-17T15:38:01.476Z,26.29
2023-08-17T15:39:33.164Z,26.23
2023-08-17T15:41:04.949Z,26.24
2023-08-17T15:42:36.630Z,26.35
2023-08-17T15:44:08.289Z,26.45
2023-08-17T15:45:41.411Z,26.29
2023-08-17T15:47:13.195Z,26.22
2023-08-17T15:48:46.309Z,26.32
2023-08-17T15:50:19.228Z,26.47
2023-08-17T15:51:50.880Z,26.50
2023-08-17T15:53:22.671Z,26.52
2023-08-17T15:54:54.344Z,26.41
2023-08-17T15:56:26.034Z,26.47
2023-08-17T15:57:57.640Z,26.49
2023-08-17T15:59:29.356Z,26.44
2023-08-17T16:01:01.006Z,26.43
2023-08-17T16:02:32.732Z,26.22
2023-08-17T16:04:05.832Z,26.22
2023-08-17T16:05:37.539Z,26.19
2023-08-17T16:07:09.196Z,26.08
2023-08-17T16:08:49.142Z,25.83
2023-08-17T16:10:21.560Z,25.84
2023-08-17T16:11:54.297Z,25.74
2023-08-17T16:13:25.966Z,25.76
2023-08-17T16:14:57.874Z,25.67
2023-08-17T16:16:29.586Z,25.59
2023-08-17T16:18:01.957Z,25.57
2023-08-17T16:19:35.149Z,25.53
2023-08-17T16:21:13.858Z,25.49
2023-08-17T16:22:46.885Z,25.37
2023-08-17T16:24:18.525Z,25.44
2023-08-17T16:25:50.196Z,25.29
2023-08-17T16:27:21.915Z,25.42
2023-08-17T16:28:53.551Z,25.48
2023-08-17T16:30:25.226Z,25.29
2023-08-17T16:32:00.849Z,25.37
2023-08-17T16:33:32.586Z,25.44
2023-08-17T16:35:06.654Z,25.38
2023-08-17T16:36:38.369Z,25.41
2023-08-17T16:38:12.217Z,25.35
2023-08-17T16:39:44.074Z,25.35
2023-08-17T16:41:15.703Z,25.34
2023-08-17T16:42:47.850Z,25.33
2023-08-17T16:44:20.080Z,25.36
2023-08-17T16:45:52.071Z,25.40
2023-08-17T16:47:27.575Z,25.40
2023-08-17T16:48:59.658Z,25.26
2023-08-17T16:50:34.366Z,25.28
2023-08-17T16:52:07.005Z,25.24
2023-08-17T16:53:44.015Z,25.30
2023-08-17T16:55:18.046Z,25.43
2023-08-17T16:58:24.817Z,25.43
2023-08-17T16:59:56.469Z,25.58
2023-08-17T17:01:28.181Z,25.48
2023-08-17T17:02:59.896Z,25.37
2023-08-17T17:04:31.783Z,25.40
2023-08-17T17:06:04.925Z,25.33
2023-08-17T17:07:36.674Z,25.46
2023-08-17T17:09:08.321Z,25.50
2023-08-17T17:10:39.946Z,25.52
2023-08-17T17:12:11.859Z,25.58
2023-08-17T17:13:43.484Z,25.35
2023-08-17T17:15:15.706Z,25.37
2023-08-17T17:16:47.956Z,25.43
2023-08-17T17:18:19.736Z,25.38
2023-08-17T17:19:51.508Z,25.40
2023-08-17T17:21:24.741Z,25.34
2023-08-17T17:22:58.762Z,25.21
2023-08-17T17:24:32.377Z,25.09
2023-08-17T17:26:08.665Z,25.05
2023-08-17T17:27:41.036Z,25.01
2023-08-17T17:29:12.750Z,24.97
2023-08-17T17:30:44.815Z,24.92
2023-08-17T17:32:16.543Z,24.97
2023-08-17T17:33:48.161Z,24.92
2023-08-17T17:35:19.950Z,24.86
2023-08-17T17:36:53.060Z,24.80
2023-08-17T17:38:24.733Z,24.79
2023-08-17T17:39:56.462Z,24.73
2023-08-17T17:41:28.204Z,24.59
2023-08-17T17:42:59.872Z,24.61
2023-08-17T17:44:31.510Z,24.62
2023-08-17T17:46:04.279Z,24.54
2023-08-17T17:47:36.501Z,24.39
2023-08-17T17:49:08.166Z,24.27
2023-08-17T17:50:40.183Z,24.10
2023-08-17T17:52:13.525Z,23.96
2023-08-17T17:53:45.208Z,23.79
2023-08-17T17:55:16.967Z,23.90
2023-08-17T17:56:49.707Z,23.69
2023-08-17T17:58:21.376Z,23.63
2023-08-17T17:59:53.564Z,23.47
2023-08-17T18:01:25.241Z,23.37
2023-08-17T18:03:09.168Z,23.38
2023-08-17T18:04:42.080Z,23.23
2023-08-17T18:06:13.860Z,23.24
2023-08-17T18:07:46.937Z,23.26
2023-08-17T18:09:18.767Z,23.23
2023-08-17T18:10:50.768Z,23.24
2023-08-17T18:12:22.473Z,23.24
2023-08-17T18:13:57.062Z,23.05
2023-08-17T18:15:28.942Z,23.00
2023-08-17T18:17:01.022Z,22.87
2023-08-17T18:18:33.754Z,22.87
2023-08-17T18:20:07.942Z,22.84
2023-08-17T18:21:39.672Z,22.90
2023-08-17T18:23:12.858Z,22.83
2023-08-17T18:24:45.022Z,22.67
2023-08-17T18:26:16.830Z,22.70
2023-08-17T18:27:48.867Z,22.69
2023-08-17T18:29:20.638Z,22.51
2023-08-17T18:30:52.356Z,22.55
2023-08-17T18:32:26.181Z,22.51
2023-08-17T18:33:57.955Z,22.36
2023-08-17T18:35:30.039Z,22.36
2023-08-17T18:37:02.352Z,22.47
2023-08-17T18:38:35.324Z,22.27
2023-08-17T18:40:08.195Z,22.50
2023-08-17T18:41:39.810Z,22.37
2023-08-17T18:43:11.478Z,22.19
2023-08-17T18:44:43.657Z,22.07
2023-08-17T18:46:15.445Z,22.08
2023-08-17T18:47:50.057Z,22.00
2023-08-17T18:49:21.876Z,21.97
2023-08-17T18:50:53.723Z,22.10
2023-08-17T18:52:28.108Z,21.91
2023-08-17T18:54:02.262Z,22.06
2023-08-17T18:55:34.071Z,22.03
2023-08-17T18:57:06.009Z,22.05
2023-08-17T18:58:37.657Z,21.93
2023-08-17T19:00:13.023Z,21.89
2023-08-17T19:01:44.768Z,21.99
2023-08-17T19:03:16.525Z,21.99
2023-08-17T19:04:48.246Z,21.97
2023-08-17T19:06:19.863Z,21.91
2023-08-17T19:07:51.668Z,21.84
2023-08-17T19:09:24.777Z,21.84
2023-08-17T19:10:57.482Z,21.95
2023-08-17T19:12:29.904Z,21.85
2023-08-17T19:14:03.101Z,21.98
2023-08-17T19:15:35.046Z,21.79
2023-08-17T19:17:09.767Z,21.73
2023-08-17T19:18:44.191Z,21.68
2023-08-17T19:20:16.431Z,21.77
2023-08-17T19:21:48.153Z,21.89
2023-08-17T19:23:21.977Z,21.67
2023-08-17T19:24:55.195Z,21.73
2023-08-17T19:26:27.284Z,21.71
2023-08-17T19:27:58.998Z,21.60
2023-08-17T19:29:31.542Z,21.59
2023-08-17T19:31:03.158Z,21.67
2023-08-17T19:32:34.789Z,21.58
2023-08-17T19:34:07.812Z,21.49
2023-08-17T19:35:39.593Z,21.42
2023-08-17T19:37:11.210Z,21.48
2023-08-17T19:38:42.991Z,21.64
2023-08-17T19:40:16.205Z,21.65
2023-08-17T19:41:48.623Z,21.41
2023-08-17T19:43:20.538Z,21.40
2023-08-17T19:44:52.122Z,21.38
2023-08-17T19:46:23.831Z,21.24
2023-08-17T19:47:55.611Z,21.28
2023-08-17T19:49:27.342Z,21.29
2023-08-17T19:50:58.932Z,21.33
2023-08-17T19:52:30.545Z,21.23
2023-08-17T19:54:02.298Z,21.22
2023-08-17T19:55:35.307Z,21.20
2023-08-17T19:57:10.039Z,21.05
2023-08-17T19:58:41.830Z,21.10
2023-08-17T20:00:17.042Z,21.05
2023-08-17T20:01:54.471Z,21.20
2023-08-17T20:03:32.242Z,21.05